sensor_id;sensor_type;location;lat;lon;timestamp;P1;durP1;ratioP1;P2;durP2;ratioP2
68995;SDS011;56056;48.990;12.146;2022-09-02T00:01:00;3.00;;;2.80;;
68995;SDS011;56056;48.990;12.146;2022-09-02T00:03:28;3.30;;;2.72;;
68995;SDS011;56056;48.990;12.146;2022-09-02T00:05:55;3.90;;;2.65;;
68995;SDS011;56056;48.990;12.146;2022-09-02T00:08:21;2.88;;;2.70;;
68995;SDS011;56056;48.990;12.146;2022-09-02T00:10:47;2.95;;;2.47;;
68995;SDS011;56056;48.990;12.146;2022-09-02T00:13:13;4.22;;;3.03;;
68995;SDS011;56056;48.990;12.146;2022-09-02T00:15:41;4.10;;;3.08;;
68995;SDS011;56056;48.990;12.146;2022-09-02T00:18:08;2.97;;;2.75;;
68995;SDS011;56056;48.990;12.146;2022-09-02T00:20:36;3.08;;;2.90;;
68995;SDS011;56056;48.990;12.146;2022-09-02T00:23:02;3.20;;;2.95;;
68995;SDS011;56056;48.990;12.146;2022-09-02T00:25:28;2.70;;;2.50;;
68995;SDS011;56056;48.990;12.146;2022-09-02T00:27:54;3.30;;;2.72;;
68995;SDS011;56056;48.990;12.146;2022-09-02T00:30:19;3.00;;;2.80;;
68995;SDS011;56056;48.990;12.146;2022-09-02T00:32:47;2.72;;;2.53;;
68995;SDS011;56056;48.990;12.146;2022-09-02T00:35:12;5.25;;;2.80;;
68995;SDS011;56056;48.990;12.146;2022-09-02T00:37:38;2.75;;;2.30;;
68995;SDS011;56056;48.990;12.146;2022-09-02T00:40:04;2.72;;;2.50;;
68995;SDS011;56056;48.990;12.146;2022-09-02T00:42:31;2.42;;;2.33;;
68995;SDS011;56056;48.990;12.146;2022-09-02T00:44:57;2.88;;;2.60;;
68995;SDS011;56056;48.990;12.146;2022-09-02T00:47:23;3.45;;;2.55;;
68995;SDS011;56056;48.990;12.146;2022-09-02T00:49:52;3.25;;;2.63;;
68995;SDS011;56056;48.990;12.146;2022-09-02T00:52:19;2.85;;;2.50;;
68995;SDS011;56056;48.990;12.146;2022-09-02T00:54:50;4.03;;;2.30;;
68995;SDS011;56056;48.990;12.146;2022-09-02T00:57:18;2.53;;;2.40;;
68995;SDS011;56056;48.990;12.146;2022-09-02T00:59:47;2.50;;;2.40;;
68995;SDS011;56056;48.990;12.146;2022-09-02T01:02:17;2.45;;;2.28;;
68995;SDS011;56056;48.990;12.146;2022-09-02T01:04:42;2.95;;;2.38;;
68995;SDS011;56056;48.990;12.146;2022-09-02T01:07:11;2.85;;;2.53;;
68995;SDS011;56056;48.990;12.146;2022-09-02T01:09:38;3.00;;;2.40;;
68995;SDS011;56056;48.990;12.146;2022-09-02T01:12:04;2.60;;;2.40;;
68995;SDS011;56056;48.990;12.146;2022-09-02T01:14:31;2.70;;;2.50;;
68995;SDS011;56056;48.990;12.146;2022-09-02T01:16:59;7.15;;;2.40;;
68995;SDS011;56056;48.990;12.146;2022-09-02T01:19:26;5.25;;;2.78;;
68995;SDS011;56056;48.990;12.146;2022-09-02T01:21:57;2.65;;;2.00;;
68995;SDS011;56056;48.990;12.146;2022-09-02T01:24:24;4.07;;;2.45;;
68995;SDS011;56056;48.990;12.146;2022-09-02T01:26:51;2.30;;;2.10;;
68995;SDS011;56056;48.990;12.146;2022-09-02T01:29:18;3.13;;;2.40;;
68995;SDS011;56056;48.990;12.146;2022-09-02T01:31:44;4.85;;;2.13;;
68995;SDS011;56056;48.990;12.146;2022-09-02T01:34:10;2.58;;;2.38;;
68995;SDS011;56056;48.990;12.146;2022-09-02T01:36:36;5.60;;;2.63;;
68995;SDS011;56056;48.990;12.146;2022-09-02T01:39:04;4.72;;;2.70;;
68995;SDS011;56056;48.990;12.146;2022-09-02T01:41:29;3.40;;;2.40;;
68995;SDS011;56056;48.990;12.146;2022-09-02T01:43:55;4.40;;;2.30;;
68995;SDS011;56056;48.990;12.146;2022-09-02T01:46:21;2.50;;;2.30;;
68995;SDS011;56056;48.990;12.146;2022-09-02T01:48:47;5.40;;;2.50;;
68995;SDS011;56056;48.990;12.146;2022-09-02T01:51:14;2.92;;;2.20;;
68995;SDS011;56056;48.990;12.146;2022-09-02T01:53:41;2.60;;;2.45;;
68995;SDS011;56056;48.990;12.146;2022-09-02T01:56:08;2.58;;;2.30;;
68995;SDS011;56056;48.990;12.146;2022-09-02T01:58:34;2.42;;;2.30;;
68995;SDS011;56056;48.990;12.146;2022-09-02T02:01:00;2.53;;;2.33;;
68995;SDS011;56056;48.990;12.146;2022-09-02T02:03:26;5.57;;;2.45;;
68995;SDS011;56056;48.990;12.146;2022-09-02T02:05:52;4.75;;;2.60;;
68995;SDS011;56056;48.990;12.146;2022-09-02T02:08:17;2.28;;;2.17;;
68995;SDS011;56056;48.990;12.146;2022-09-02T02:10:43;2.33;;;2.22;;
68995;SDS011;56056;48.990;12.146;2022-09-02T02:13:10;2.65;;;2.40;;
68995;SDS011;56056;48.990;12.146;2022-09-02T02:15:36;2.50;;;2.30;;
68995;SDS011;56056;48.990;12.146;2022-09-02T02:18:02;2.50;;;2.40;;
68995;SDS011;56056;48.990;12.146;2022-09-02T02:20:28;2.55;;;2.45;;
68995;SDS011;56056;48.990;12.146;2022-09-02T02:22:54;2.47;;;2.38;;
68995;SDS011;56056;48.990;12.146;2022-09-02T02:25:20;2.50;;;2.30;;
68995;SDS011;56056;48.990;12.146;2022-09-02T02:27:45;2.60;;;2.42;;
68995;SDS011;56056;48.990;12.146;2022-09-02T02:30:14;2.38;;;2.08;;
68995;SDS011;56056;48.990;12.146;2022-09-02T02:32:40;2.40;;;2.30;;
68995;SDS011;56056;48.990;12.146;2022-09-02T02:35:06;2.47;;;2.28;;
68995;SDS011;56056;48.990;12.146;2022-09-02T02:37:32;3.05;;;2.80;;
68995;SDS011;56056;48.990;12.146;2022-09-02T02:39:58;2.22;;;2.13;;
68995;SDS011;56056;48.990;12.146;2022-09-02T02:42:24;2.45;;;2.20;;
68995;SDS011;56056;48.990;12.146;2022-09-02T02:44:49;3.72;;;2.60;;
68995;SDS011;56056;48.990;12.146;2022-09-02T02:47:16;2.80;;;2.40;;
68995;SDS011;56056;48.990;12.146;2022-09-02T02:49:42;4.80;;;2.25;;
68995;SDS011;56056;48.990;12.146;2022-09-02T02:52:09;2.72;;;2.22;;
68995;SDS011;56056;48.990;12.146;2022-09-02T02:54:35;3.20;;;2.55;;
68995;SDS011;56056;48.990;12.146;2022-09-02T02:57:01;3.40;;;2.50;;
68995;SDS011;56056;48.990;12.146;2022-09-02T02:59:27;2.58;;;2.30;;
68995;SDS011;56056;48.990;12.146;2022-09-02T03:01:53;2.80;;;2.60;;
68995;SDS011;56056;48.990;12.146;2022-09-02T03:04:20;3.58;;;2.20;;
68995;SDS011;56056;48.990;12.146;2022-09-02T03:06:46;2.50;;;2.40;;
68995;SDS011;56056;48.990;12.146;2022-09-02T03:09:11;3.00;;;2.53;;
68995;SDS011;56056;48.990;12.146;2022-09-02T03:11:37;2.80;;;2.58;;
68995;SDS011;56056;48.990;12.146;2022-09-02T03:14:03;4.18;;;2.53;;
68995;SDS011;56056;48.990;12.146;2022-09-02T03:16:29;3.03;;;2.60;;
68995;SDS011;56056;48.990;12.146;2022-09-02T03:18:55;3.95;;;2.40;;
68995;SDS011;56056;48.990;12.146;2022-09-02T03:21:22;2.78;;;2.42;;
68995;SDS011;56056;48.990;12.146;2022-09-02T03:23:48;3.40;;;2.85;;
68995;SDS011;56056;48.990;12.146;2022-09-02T03:26:15;2.63;;;2.42;;
68995;SDS011;56056;48.990;12.146;2022-09-02T03:28:42;2.88;;;2.65;;
68995;SDS011;56056;48.990;12.146;2022-09-02T03:31:12;2.70;;;2.50;;
68995;SDS011;56056;48.990;12.146;2022-09-02T03:33:39;3.30;;;3.00;;
68995;SDS011;56056;48.990;12.146;2022-09-02T03:36:05;3.85;;;2.50;;
68995;SDS011;56056;48.990;12.146;2022-09-02T03:38:32;2.67;;;2.47;;
68995;SDS011;56056;48.990;12.146;2022-09-02T03:40:59;2.85;;;2.70;;
68995;SDS011;56056;48.990;12.146;2022-09-02T03:43:24;2.97;;;2.70;;
68995;SDS011;56056;48.990;12.146;2022-09-02T03:45:50;4.05;;;3.00;;
68995;SDS011;56056;48.990;12.146;2022-09-02T03:48:16;2.80;;;2.58;;
68995;SDS011;56056;48.990;12.146;2022-09-02T03:50:42;3.08;;;2.75;;
68995;SDS011;56056;48.990;12.146;2022-09-02T03:53:09;2.78;;;2.58;;
68995;SDS011;56056;48.990;12.146;2022-09-02T03:55:36;2.95;;;2.72;;
68995;SDS011;56056;48.990;12.146;2022-09-02T03:58:02;4.38;;;3.00;;
68995;SDS011;56056;48.990;12.146;2022-09-02T04:00:28;3.17;;;2.90;;
68995;SDS011;56056;48.990;12.146;2022-09-02T04:02:55;5.82;;;4.22;;
68995;SDS011;56056;48.990;12.146;2022-09-02T04:05:22;3.88;;;3.45;;
68995;SDS011;56056;48.990;12.146;2022-09-02T04:07:48;3.90;;;3.60;;
68995;SDS011;56056;48.990;12.146;2022-09-02T04:10:16;2.97;;;2.78;;
68995;SDS011;56056;48.990;12.146;2022-09-02T04:12:44;3.90;;;3.58;;
68995;SDS011;56056;48.990;12.146;2022-09-02T04:15:10;3.25;;;2.92;;
68995;SDS011;56056;48.990;12.146;2022-09-02T04:17:36;2.92;;;2.83;;
68995;SDS011;56056;48.990;12.146;2022-09-02T04:20:03;3.03;;;2.70;;
68995;SDS011;56056;48.990;12.146;2022-09-02T04:22:30;3.05;;;2.85;;
68995;SDS011;56056;48.990;12.146;2022-09-02T04:24:56;3.83;;;2.90;;
68995;SDS011;56056;48.990;12.146;2022-09-02T04:27:21;3.08;;;2.80;;
68995;SDS011;56056;48.990;12.146;2022-09-02T04:29:48;3.78;;;2.88;;
68995;SDS011;56056;48.990;12.146;2022-09-02T04:32:14;2.92;;;2.72;;
68995;SDS011;56056;48.990;12.146;2022-09-02T04:34:39;4.20;;;3.40;;
68995;SDS011;56056;48.990;12.146;2022-09-02T04:37:05;4.72;;;2.58;;
68995;SDS011;56056;48.990;12.146;2022-09-02T04:39:31;4.18;;;3.25;;
68995;SDS011;56056;48.990;12.146;2022-09-02T04:41:57;3.20;;;2.97;;
68995;SDS011;56056;48.990;12.146;2022-09-02T04:44:23;4.15;;;2.80;;
68995;SDS011;56056;48.990;12.146;2022-09-02T04:46:50;3.85;;;2.67;;
68995;SDS011;56056;48.990;12.146;2022-09-02T04:49:17;3.20;;;2.80;;
68995;SDS011;56056;48.990;12.146;2022-09-02T04:51:42;4.38;;;3.00;;
68995;SDS011;56056;48.990;12.146;2022-09-02T04:54:08;3.15;;;2.95;;
68995;SDS011;56056;48.990;12.146;2022-09-02T04:56:34;3.20;;;3.00;;
68995;SDS011;56056;48.990;12.146;2022-09-02T04:59:01;4.18;;;3.88;;
68995;SDS011;56056;48.990;12.146;2022-09-02T05:01:28;4.07;;;3.70;;
68995;SDS011;56056;48.990;12.146;2022-09-02T05:03:57;4.22;;;3.83;;
68995;SDS011;56056;48.990;12.146;2022-09-02T05:06:24;4.30;;;3.90;;
68995;SDS011;56056;48.990;12.146;2022-09-02T05:08:51;5.15;;;3.65;;
68995;SDS011;56056;48.990;12.146;2022-09-02T05:11:22;3.33;;;3.10;;
68995;SDS011;56056;48.990;12.146;2022-09-02T05:13:52;2.60;;;2.40;;
68995;SDS011;56056;48.990;12.146;2022-09-02T05:16:21;5.07;;;3.25;;
68995;SDS011;56056;48.990;12.146;2022-09-02T05:18:48;2.47;;;2.28;;
68995;SDS011;56056;48.990;12.146;2022-09-02T05:21:15;3.85;;;2.30;;
68995;SDS011;56056;48.990;12.146;2022-09-02T05:23:41;3.28;;;2.45;;
68995;SDS011;56056;48.990;12.146;2022-09-02T05:26:08;5.07;;;2.70;;
68995;SDS011;56056;48.990;12.146;2022-09-02T05:28:34;3.65;;;2.70;;
68995;SDS011;56056;48.990;12.146;2022-09-02T05:31:01;2.95;;;2.40;;
68995;SDS011;56056;48.990;12.146;2022-09-02T05:33:29;5.30;;;2.78;;
68995;SDS011;56056;48.990;12.146;2022-09-02T05:35:55;3.22;;;2.40;;
68995;SDS011;56056;48.990;12.146;2022-09-02T05:38:22;5.68;;;2.72;;
68995;SDS011;56056;48.990;12.146;2022-09-02T05:40:49;3.97;;;2.40;;
68995;SDS011;56056;48.990;12.146;2022-09-02T05:43:14;2.72;;;2.50;;
68995;SDS011;56056;48.990;12.146;2022-09-02T05:45:40;3.55;;;2.50;;
68995;SDS011;56056;48.990;12.146;2022-09-02T05:48:06;2.85;;;2.28;;
68995;SDS011;56056;48.990;12.146;2022-09-02T05:50:51;2.20;;;2.10;;
68995;SDS011;56056;48.990;12.146;2022-09-02T05:53:17;3.00;;;2.33;;
68995;SDS011;56056;48.990;12.146;2022-09-02T05:55:44;4.05;;;2.60;;
68995;SDS011;56056;48.990;12.146;2022-09-02T05:58:10;2.25;;;2.10;;
68995;SDS011;56056;48.990;12.146;2022-09-02T06:00:36;2.38;;;1.80;;
68995;SDS011;56056;48.990;12.146;2022-09-02T06:03:02;2.85;;;2.47;;
68995;SDS011;56056;48.990;12.146;2022-09-02T06:05:28;5.65;;;2.10;;
68995;SDS011;56056;48.990;12.146;2022-09-02T06:07:54;2.53;;;2.13;;
68995;SDS011;56056;48.990;12.146;2022-09-02T06:10:20;3.88;;;2.60;;
68995;SDS011;56056;48.990;12.146;2022-09-02T06:12:47;2.08;;;1.98;;
68995;SDS011;56056;48.990;12.146;2022-09-02T06:15:13;4.35;;;2.42;;
68995;SDS011;56056;48.990;12.146;2022-09-02T06:17:38;3.70;;;2.40;;
68995;SDS011;56056;48.990;12.146;2022-09-02T06:20:04;3.92;;;2.13;;
68995;SDS011;56056;48.990;12.146;2022-09-02T06:22:31;2.72;;;1.70;;
68995;SDS011;56056;48.990;12.146;2022-09-02T06:24:56;1.65;;;1.55;;
68995;SDS011;56056;48.990;12.146;2022-09-02T06:27:22;3.30;;;1.85;;
68995;SDS011;56056;48.990;12.146;2022-09-02T06:29:49;1.83;;;1.73;;
68995;SDS011;56056;48.990;12.146;2022-09-02T06:32:15;2.30;;;2.10;;
68995;SDS011;56056;48.990;12.146;2022-09-02T06:34:41;3.10;;;1.90;;
68995;SDS011;56056;48.990;12.146;2022-09-02T06:37:06;6.57;;;1.65;;
68995;SDS011;56056;48.990;12.146;2022-09-02T06:39:32;2.95;;;1.80;;
68995;SDS011;56056;48.990;12.146;2022-09-02T06:41:58;2.95;;;1.60;;
68995;SDS011;56056;48.990;12.146;2022-09-02T06:44:23;5.13;;;2.20;;
68995;SDS011;56056;48.990;12.146;2022-09-02T06:46:53;4.03;;;2.05;;
68995;SDS011;56056;48.990;12.146;2022-09-02T06:49:20;7.28;;;1.92;;
68995;SDS011;56056;48.990;12.146;2022-09-02T06:51:46;1.90;;;1.80;;
68995;SDS011;56056;48.990;12.146;2022-09-02T06:54:13;4.35;;;2.30;;
68995;SDS011;56056;48.990;12.146;2022-09-02T06:56:40;3.58;;;2.55;;
68995;SDS011;56056;48.990;12.146;2022-09-02T06:59:06;5.05;;;2.00;;
68995;SDS011;56056;48.990;12.146;2022-09-02T07:01:32;3.63;;;2.25;;
68995;SDS011;56056;48.990;12.146;2022-09-02T07:04:00;3.70;;;1.90;;
68995;SDS011;56056;48.990;12.146;2022-09-02T07:06:47;3.35;;;1.75;;
68995;SDS011;56056;48.990;12.146;2022-09-02T07:09:16;2.70;;;1.75;;
68995;SDS011;56056;48.990;12.146;2022-09-02T07:11:44;3.40;;;1.98;;
68995;SDS011;56056;48.990;12.146;2022-09-02T07:14:12;4.05;;;2.33;;
68995;SDS011;56056;48.990;12.146;2022-09-02T07:16:41;1.92;;;1.83;;
68995;SDS011;56056;48.990;12.146;2022-09-02T07:19:09;2.47;;;1.50;;
68995;SDS011;56056;48.990;12.146;2022-09-02T07:21:35;3.90;;;1.95;;
68995;SDS011;56056;48.990;12.146;2022-09-02T07:24:01;2.17;;;1.98;;
68995;SDS011;56056;48.990;12.146;2022-09-02T07:26:27;2.28;;;1.98;;
68995;SDS011;56056;48.990;12.146;2022-09-02T07:28:53;2.17;;;1.77;;
68995;SDS011;56056;48.990;12.146;2022-09-02T07:31:19;2.08;;;1.70;;
68995;SDS011;56056;48.990;12.146;2022-09-02T07:33:45;2.78;;;2.17;;
68995;SDS011;56056;48.990;12.146;2022-09-02T07:36:13;3.60;;;2.10;;
68995;SDS011;56056;48.990;12.146;2022-09-02T07:38:39;2.20;;;2.00;;
68995;SDS011;56056;48.990;12.146;2022-09-02T07:41:06;2.95;;;1.42;;
68995;SDS011;56056;48.990;12.146;2022-09-02T07:43:33;2.28;;;1.58;;
68995;SDS011;56056;48.990;12.146;2022-09-02T07:46:00;1.73;;;1.40;;
68995;SDS011;56056;48.990;12.146;2022-09-02T07:48:26;1.52;;;1.40;;
68995;SDS011;56056;48.990;12.146;2022-09-02T07:50:53;2.35;;;1.50;;
68995;SDS011;56056;48.990;12.146;2022-09-02T07:53:20;1.17;;;1.17;;
68995;SDS011;56056;48.990;12.146;2022-09-02T07:55:46;2.45;;;1.60;;
68995;SDS011;56056;48.990;12.146;2022-09-02T07:58:14;2.15;;;1.40;;
68995;SDS011;56056;48.990;12.146;2022-09-02T08:00:41;3.88;;;1.10;;
68995;SDS011;56056;48.990;12.146;2022-09-02T08:03:07;1.60;;;1.40;;
68995;SDS011;56056;48.990;12.146;2022-09-02T08:05:34;0.90;;;0.90;;
68995;SDS011;56056;48.990;12.146;2022-09-02T08:08:00;1.20;;;1.05;;
68995;SDS011;56056;48.990;12.146;2022-09-02T08:10:28;1.90;;;1.27;;
68995;SDS011;56056;48.990;12.146;2022-09-02T08:12:55;0.98;;;0.98;;
68995;SDS011;56056;48.990;12.146;2022-09-02T08:15:22;1.15;;;1.10;;
68995;SDS011;56056;48.990;12.146;2022-09-02T08:17:48;1.40;;;1.35;;
68995;SDS011;56056;48.990;12.146;2022-09-02T08:20:14;2.88;;;1.40;;
68995;SDS011;56056;48.990;12.146;2022-09-02T08:22:41;1.13;;;1.10;;
68995;SDS011;56056;48.990;12.146;2022-09-02T08:25:08;1.80;;;1.25;;
68995;SDS011;56056;48.990;12.146;2022-09-02T08:27:36;1.90;;;1.27;;
68995;SDS011;56056;48.990;12.146;2022-09-02T08:30:02;2.90;;;1.40;;
68995;SDS011;56056;48.990;12.146;2022-09-02T08:32:28;1.40;;;1.30;;
68995;SDS011;56056;48.990;12.146;2022-09-02T08:34:54;3.85;;;1.40;;
68995;SDS011;56056;48.990;12.146;2022-09-02T08:37:20;1.15;;;1.02;;
68995;SDS011;56056;48.990;12.146;2022-09-02T08:39:46;0.98;;;0.98;;
68995;SDS011;56056;48.990;12.146;2022-09-02T08:42:14;1.20;;;1.20;;
68995;SDS011;56056;48.990;12.146;2022-09-02T08:44:44;2.30;;;1.40;;
68995;SDS011;56056;48.990;12.146;2022-09-02T08:47:12;1.55;;;1.27;;
68995;SDS011;56056;48.990;12.146;2022-09-02T08:49:40;1.17;;;1.00;;
68995;SDS011;56056;48.990;12.146;2022-09-02T08:52:08;1.15;;;1.15;;
68995;SDS011;56056;48.990;12.146;2022-09-02T08:54:40;1.50;;;1.45;;
68995;SDS011;56056;48.990;12.146;2022-09-02T08:57:09;1.42;;;1.00;;
68995;SDS011;56056;48.990;12.146;2022-09-02T08:59:35;1.80;;;1.10;;
68995;SDS011;56056;48.990;12.146;2022-09-02T09:02:04;2.42;;;1.27;;
68995;SDS011;56056;48.990;12.146;2022-09-02T09:04:49;1.05;;;1.05;;
68995;SDS011;56056;48.990;12.146;2022-09-02T09:07:24;1.20;;;1.20;;
68995;SDS011;56056;48.990;12.146;2022-09-02T09:09:57;1.13;;;1.00;;
68995;SDS011;56056;48.990;12.146;2022-09-02T09:12:31;1.98;;;0.95;;
68995;SDS011;56056;48.990;12.146;2022-09-02T09:15:04;2.10;;;1.23;;
68995;SDS011;56056;48.990;12.146;2022-09-02T09:17:38;1.10;;;1.10;;
68995;SDS011;56056;48.990;12.146;2022-09-02T09:20:10;1.15;;;1.08;;
68995;SDS011;56056;48.990;12.146;2022-09-02T09:22:40;1.15;;;1.15;;
68995;SDS011;56056;48.990;12.146;2022-09-02T09:25:07;2.17;;;1.10;;
68995;SDS011;56056;48.990;12.146;2022-09-02T09:27:35;1.45;;;1.35;;
68995;SDS011;56056;48.990;12.146;2022-09-02T09:30:01;2.65;;;1.30;;
68995;SDS011;56056;48.990;12.146;2022-09-02T09:32:30;1.02;;;0.80;;
68995;SDS011;56056;48.990;12.146;2022-09-02T09:35:00;2.95;;;1.08;;
68995;SDS011;56056;48.990;12.146;2022-09-02T09:37:28;1.08;;;1.02;;
68995;SDS011;56056;48.990;12.146;2022-09-02T09:39:55;1.58;;;1.20;;
68995;SDS011;56056;48.990;12.146;2022-09-02T09:42:29;1.92;;;1.27;;
68995;SDS011;56056;48.990;12.146;2022-09-02T09:44:56;1.25;;;1.15;;
68995;SDS011;56056;48.990;12.146;2022-09-02T09:47:22;1.20;;;1.10;;
68995;SDS011;56056;48.990;12.146;2022-09-02T09:49:50;1.33;;;1.23;;
68995;SDS011;56056;48.990;12.146;2022-09-02T09:52:26;1.63;;;1.20;;
68995;SDS011;56056;48.990;12.146;2022-09-02T09:55:06;1.80;;;1.05;;
68995;SDS011;56056;48.990;12.146;2022-09-02T09:57:35;0.95;;;0.95;;
68995;SDS011;56056;48.990;12.146;2022-09-02T10:00:08;3.00;;;1.40;;
68995;SDS011;56056;48.990;12.146;2022-09-02T10:02:35;1.45;;;1.35;;
68995;SDS011;56056;48.990;12.146;2022-09-02T10:05:15;1.10;;;1.10;;
68995;SDS011;56056;48.990;12.146;2022-09-02T10:07:52;1.40;;;1.30;;
68995;SDS011;56056;48.990;12.146;2022-09-02T10:10:19;3.70;;;3.45;;
68995;SDS011;56056;48.990;12.146;2022-09-02T10:12:47;1.35;;;1.27;;
68995;SDS011;56056;48.990;12.146;2022-09-02T10:15:15;2.00;;;1.10;;
68995;SDS011;56056;48.990;12.146;2022-09-02T10:17:48;4.20;;;1.02;;
68995;SDS011;56056;48.990;12.146;2022-09-02T10:20:17;2.20;;;1.13;;
68995;SDS011;56056;48.990;12.146;2022-09-02T10:22:54;1.38;;;1.15;;
68995;SDS011;56056;48.990;12.146;2022-09-02T10:25:33;2.13;;;1.00;;
68995;SDS011;56056;48.990;12.146;2022-09-02T10:28:05;0.95;;;0.80;;
68995;SDS011;56056;48.990;12.146;2022-09-02T10:30:39;3.05;;;1.45;;
68995;SDS011;56056;48.990;12.146;2022-09-02T10:33:18;1.13;;;1.10;;
68995;SDS011;56056;48.990;12.146;2022-09-02T10:35:50;1.40;;;1.30;;
68995;SDS011;56056;48.990;12.146;2022-09-02T10:38:24;2.05;;;1.10;;
68995;SDS011;56056;48.990;12.146;2022-09-02T10:40:57;1.40;;;1.30;;
68995;SDS011;56056;48.990;12.146;2022-09-02T10:43:29;1.73;;;1.20;;
68995;SDS011;56056;48.990;12.146;2022-09-02T10:46:04;1.45;;;1.30;;
68995;SDS011;56056;48.990;12.146;2022-09-02T10:48:36;2.08;;;1.10;;
68995;SDS011;56056;48.990;12.146;2022-09-02T10:51:11;1.17;;;1.10;;
68995;SDS011;56056;48.990;12.146;2022-09-02T10:53:45;1.48;;;1.00;;
68995;SDS011;56056;48.990;12.146;2022-09-02T10:56:18;1.20;;;1.08;;
68995;SDS011;56056;48.990;12.146;2022-09-02T10:58:47;3.38;;;1.10;;
68995;SDS011;56056;48.990;12.146;2022-09-02T11:01:17;1.35;;;1.30;;
68995;SDS011;56056;48.990;12.146;2022-09-02T11:03:50;1.25;;;1.20;;
68995;SDS011;56056;48.990;12.146;2022-09-02T11:06:23;3.45;;;1.13;;
68995;SDS011;56056;48.990;12.146;2022-09-02T11:08:54;1.38;;;1.27;;
68995;SDS011;56056;48.990;12.146;2022-09-02T11:11:23;2.72;;;1.05;;
68995;SDS011;56056;48.990;12.146;2022-09-02T11:13:53;1.48;;;1.38;;
68995;SDS011;56056;48.990;12.146;2022-09-02T11:16:24;1.30;;;1.20;;
68995;SDS011;56056;48.990;12.146;2022-09-02T11:18:54;1.63;;;1.00;;
68995;SDS011;56056;48.990;12.146;2022-09-02T11:21:28;1.30;;;1.25;;
68995;SDS011;56056;48.990;12.146;2022-09-02T11:24:00;2.13;;;1.05;;
68995;SDS011;56056;48.990;12.146;2022-09-02T11:26:31;1.25;;;1.10;;
68995;SDS011;56056;48.990;12.146;2022-09-02T11:29:03;2.03;;;1.02;;
68995;SDS011;56056;48.990;12.146;2022-09-02T11:31:32;1.00;;;1.00;;
68995;SDS011;56056;48.990;12.146;2022-09-02T11:34:01;1.33;;;1.33;;
68995;SDS011;56056;48.990;12.146;2022-09-02T11:36:29;2.08;;;1.20;;
68995;SDS011;56056;48.990;12.146;2022-09-02T11:38:56;2.25;;;1.10;;
68995;SDS011;56056;48.990;12.146;2022-09-02T11:41:32;1.25;;;1.15;;
68995;SDS011;56056;48.990;12.146;2022-09-02T11:44:15;1.00;;;1.00;;
68995;SDS011;56056;48.990;12.146;2022-09-02T11:46:58;1.88;;;1.30;;
68995;SDS011;56056;48.990;12.146;2022-09-02T11:49:45;1.52;;;1.40;;
68995;SDS011;56056;48.990;12.146;2022-09-02T11:52:27;1.05;;;1.00;;
68995;SDS011;56056;48.990;12.146;2022-09-02T11:55:02;2.40;;;1.00;;
68995;SDS011;56056;48.990;12.146;2022-09-02T11:57:31;1.15;;;1.15;;
68995;SDS011;56056;48.990;12.146;2022-09-02T12:00:04;0.90;;;0.90;;
68995;SDS011;56056;48.990;12.146;2022-09-02T12:02:40;0.90;;;0.90;;
68995;SDS011;56056;48.990;12.146;2022-09-02T12:08:54;0.93;;;0.80;;
68995;SDS011;56056;48.990;12.146;2022-09-02T12:11:35;0.95;;;0.93;;
68995;SDS011;56056;48.990;12.146;2022-09-02T12:14:06;1.10;;;1.00;;
68995;SDS011;56056;48.990;12.146;2022-09-02T12:19:28;1.77;;;0.80;;
68995;SDS011;56056;48.990;12.146;2022-09-02T12:24:56;2.97;;;1.40;;
68995;SDS011;56056;48.990;12.146;2022-09-02T12:27:31;1.27;;;1.17;;
68995;SDS011;56056;48.990;12.146;2022-09-02T12:29:58;1.10;;;1.10;;
68995;SDS011;56056;48.990;12.146;2022-09-02T12:35:31;1.90;;;1.08;;
68995;SDS011;56056;48.990;12.146;2022-09-02T12:46:47;1.13;;;1.10;;
68995;SDS011;56056;48.990;12.146;2022-09-02T12:49:22;1.13;;;1.13;;
68995;SDS011;56056;48.990;12.146;2022-09-02T12:51:53;1.60;;;1.30;;
68995;SDS011;56056;48.990;12.146;2022-09-02T12:54:22;2.10;;;1.27;;
68995;SDS011;56056;48.990;12.146;2022-09-02T12:56:51;2.58;;;1.27;;
68995;SDS011;56056;48.990;12.146;2022-09-02T12:59:24;2.40;;;1.40;;
68995;SDS011;56056;48.990;12.146;2022-09-02T13:01:53;1.23;;;1.10;;
68995;SDS011;56056;48.990;12.146;2022-09-02T13:04:35;1.98;;;1.20;;
68995;SDS011;56056;48.990;12.146;2022-09-02T13:10:03;2.10;;;1.10;;
68995;SDS011;56056;48.990;12.146;2022-09-02T13:12:57;0.88;;;0.88;;
68995;SDS011;56056;48.990;12.146;2022-09-02T13:15:52;3.17;;;1.10;;
68995;SDS011;56056;48.990;12.146;2022-09-02T13:21:39;1.20;;;1.10;;
68995;SDS011;56056;48.990;12.146;2022-09-02T13:24:37;2.88;;;2.67;;
68995;SDS011;56056;48.990;12.146;2022-09-02T13:27:41;1.25;;;1.15;;
68995;SDS011;56056;48.990;12.146;2022-09-02T13:30:27;1.00;;;1.00;;
68995;SDS011;56056;48.990;12.146;2022-09-02T13:33:04;1.50;;;1.10;;
68995;SDS011;56056;48.990;12.146;2022-09-02T13:35:30;1.05;;;1.00;;
68995;SDS011;56056;48.990;12.146;2022-09-02T13:38:01;1.23;;;1.13;;
68995;SDS011;56056;48.990;12.146;2022-09-02T13:40:27;1.42;;;1.20;;
68995;SDS011;56056;48.990;12.146;2022-09-02T13:42:54;1.67;;;1.48;;
68995;SDS011;56056;48.990;12.146;2022-09-02T13:45:21;1.63;;;1.08;;
68995;SDS011;56056;48.990;12.146;2022-09-02T13:47:49;1.27;;;1.27;;
68995;SDS011;56056;48.990;12.146;2022-09-02T13:50:18;1.30;;;1.13;;
68995;SDS011;56056;48.990;12.146;2022-09-02T13:52:46;1.00;;;1.00;;
68995;SDS011;56056;48.990;12.146;2022-09-02T13:55:14;1.77;;;0.90;;
68995;SDS011;56056;48.990;12.146;2022-09-02T13:57:42;1.02;;;1.02;;
68995;SDS011;56056;48.990;12.146;2022-09-02T14:00:09;3.35;;;1.02;;
68995;SDS011;56056;48.990;12.146;2022-09-02T14:02:39;2.60;;;1.40;;
68995;SDS011;56056;48.990;12.146;2022-09-02T14:05:06;1.30;;;1.13;;
68995;SDS011;56056;48.990;12.146;2022-09-02T14:07:40;1.17;;;1.10;;
68995;SDS011;56056;48.990;12.146;2022-09-02T14:10:07;1.15;;;1.08;;
68995;SDS011;56056;48.990;12.146;2022-09-02T14:12:35;2.20;;;1.38;;
68995;SDS011;56056;48.990;12.146;2022-09-02T14:15:03;0.95;;;0.90;;
68995;SDS011;56056;48.990;12.146;2022-09-02T14:17:30;3.83;;;1.30;;
68995;SDS011;56056;48.990;12.146;2022-09-02T14:22:53;0.90;;;0.90;;
68995;SDS011;56056;48.990;12.146;2022-09-02T14:25:20;2.38;;;1.00;;
68995;SDS011;56056;48.990;12.146;2022-09-02T14:27:47;4.47;;;1.08;;
68995;SDS011;56056;48.990;12.146;2022-09-02T14:30:22;0.90;;;0.90;;
68995;SDS011;56056;48.990;12.146;2022-09-02T14:35:40;2.03;;;0.90;;
68995;SDS011;56056;48.990;12.146;2022-09-02T14:38:07;2.22;;;1.30;;
68995;SDS011;56056;48.990;12.146;2022-09-02T14:40:47;2.30;;;0.90;;
68995;SDS011;56056;48.990;12.146;2022-09-02T14:43:13;1.20;;;1.10;;
68995;SDS011;56056;48.990;12.146;2022-09-02T14:45:40;1.25;;;1.23;;
68995;SDS011;56056;48.990;12.146;2022-09-02T14:48:09;1.15;;;1.00;;
68995;SDS011;56056;48.990;12.146;2022-09-02T14:50:41;2.47;;;0.90;;
68995;SDS011;56056;48.990;12.146;2022-09-02T14:53:08;0.90;;;0.90;;
68995;SDS011;56056;48.990;12.146;2022-09-02T14:55:48;1.67;;;0.90;;
68995;SDS011;56056;48.990;12.146;2022-09-02T14:58:16;0.88;;;0.88;;
68995;SDS011;56056;48.990;12.146;2022-09-02T15:00:43;0.77;;;0.77;;
68995;SDS011;56056;48.990;12.146;2022-09-02T15:03:11;0.93;;;0.93;;
68995;SDS011;56056;48.990;12.146;2022-09-02T15:05:38;4.18;;;2.78;;
68995;SDS011;56056;48.990;12.146;2022-09-02T15:08:04;1.65;;;1.10;;
68995;SDS011;56056;48.990;12.146;2022-09-02T15:10:32;1.65;;;0.80;;
68995;SDS011;56056;48.990;12.146;2022-09-02T15:12:58;1.42;;;1.00;;
68995;SDS011;56056;48.990;12.146;2022-09-02T15:15:24;1.08;;;1.08;;